Time;durP1;ratioP1;P1;durP2;ratioP2;P2;SDS_P1;SDS_P2;PMS_P1;PMS_P2;Temp;Humidity;BMP_temperature;BMP_pressure;BME280_temperature;BME280_humidity;BME280_pressure;Samples;Min_cycle;Max_cycle;Signal;HPM_P1;HPM_P2
2023/06/24 00:00:08;;;;;;;4.23;3.40;;;;;;;;;;5071216;28;20858;-67
2023/06/24 00:02:37;;;;;;;3.63;2.83;;;;;;;;;;5070961;28;20516;-67
2023/06/24 00:05:05;;;;;;;5.07;3.60;;;;;;;;;;5071136;28;20448;-67
2023/06/24 00:07:36;;;;;;;4.00;3.10;;;;;;;;;;5070692;28;21175;-67
2023/06/24 00:10:04;;;;;;;4.00;3.00;;;;;;;;;;5070609;28;20530;-67
2023/06/24 00:12:32;;;;;;;4.60;3.40;;;;;;;;;;5071138;28;20854;-67
2023/06/24 00:15:00;;;;;;;4.60;2.80;;;;;;;;;;5071277;28;20475;-67
2023/06/24 00:17:28;;;;;;;4.50;3.20;;;;;;;;;;5070705;28;20468;-67
2023/06/24 00:19:55;;;;;;;3.90;3.20;;;;;;;;;;5070237;28;20445;-67
2023/06/24 00:22:22;;;;;;;4.03;3.30;;;;;;;;;;5070924;28;20537;-67
2023/06/24 00:24:51;;;;;;;4.00;2.83;;;;;;;;;;5071068;28;20440;-67
2023/06/24 00:27:18;;;;;;;4.07;3.10;;;;;;;;;;5070246;28;20469;-67
2023/06/24 00:29:45;;;;;;;3.83;2.83;;;;;;;;;;5070707;28;20531;-67
2023/06/24 00:32:12;;;;;;;4.10;2.80;;;;;;;;;;5069005;28;20532;-67
2023/06/24 00:34:43;;;;;;;3.47;2.60;;;;;;;;;;5070888;28;20474;-67
2023/06/24 00:37:10;;;;;;;4.07;3.00;;;;;;;;;;5070365;28;20474;-67
2023/06/24 00:39:37;;;;;;;4.73;3.50;;;;;;;;;;5070629;28;20472;-67
2023/06/24 00:42:07;;;;;;;4.70;3.00;;;;;;;;;;5070430;28;21078;-67
2023/06/24 00:44:34;;;;;;;3.60;2.80;;;;;;;;;;5070661;28;20933;-67
2023/06/24 00:47:02;;;;;;;3.97;2.47;;;;;;;;;;5069984;28;21008;-67
2023/06/24 00:49:29;;;;;;;3.70;2.97;;;;;;;;;;5072687;28;20448;-67
2023/06/24 00:51:56;;;;;;;3.40;2.27;;;;;;;;;;5073010;28;20437;-67
2023/06/24 00:54:30;;;;;;;3.50;2.60;;;;;;;;;;5072891;28;20531;-67
2023/06/24 00:57:00;;;;;;;3.57;2.97;;;;;;;;;;5072997;28;20553;-67
2023/06/24 00:59:30;;;;;;;4.10;3.20;;;;;;;;;;5074258;28;20479;-67
2023/06/24 01:01:57;;;;;;;3.40;2.57;;;;;;;;;;5074132;28;20480;-67
2023/06/24 01:04:25;;;;;;;2.80;2.20;;;;;;;;;;5074370;28;20479;-67
2023/06/24 01:06:52;;;;;;;3.27;2.37;;;;;;;;;;5073946;28;20832;-67
2023/06/24 01:09:20;;;;;;;4.03;2.70;;;;;;;;;;5073854;28;20483;-67
2023/06/24 01:11:48;;;;;;;3.83;2.53;;;;;;;;;;5073971;28;20981;-67
2023/06/24 01:14:19;;;;;;;4.00;2.60;;;;;;;;;;5074073;28;20449;-67
2023/06/24 01:16:54;;;;;;;4.90;3.30;;;;;;;;;;5073753;28;20472;-67
2023/06/24 01:19:38;;;;;;;4.07;3.40;;;;;;;;;;5074213;28;20487;-67
2023/06/24 01:22:11;;;;;;;3.30;2.20;;;;;;;;;;5071981;28;20487;-67
2023/06/24 01:24:48;;;;;;;3.90;2.60;;;;;;;;;;5073955;28;20929;-67
2023/06/24 01:27:30;;;;;;;3.50;2.80;;;;;;;;;;5073345;28;20547;-67
2023/06/24 01:30:09;;;;;;;4.23;2.90;;;;;;;;;;5073625;28;20444;-67
2023/06/24 01:32:40;;;;;;;4.37;2.63;;;;;;;;;;5072579;28;20432;-67
2023/06/24 01:35:10;;;;;;;4.60;2.73;;;;;;;;;;5084951;28;20525;-67
2023/06/24 01:37:40;;;;;;;3.70;2.50;;;;;;;;;;5077800;28;20440;-67
2023/06/24 01:40:11;;;;;;;3.00;1.90;;;;;;;;;;5073067;28;20441;-67
2023/06/24 01:42:39;;;;;;;3.67;2.60;;;;;;;;;;5073363;28;20492;-67
2023/06/24 01:45:08;;;;;;;3.10;2.60;;;;;;;;;;5073208;28;20884;-67
2023/06/24 01:47:36;;;;;;;3.63;2.97;;;;;;;;;;5073082;28;20531;-67
2023/06/24 01:50:05;;;;;;;5.03;2.57;;;;;;;;;;5073407;28;20459;-67
2023/06/24 01:52:34;;;;;;;3.60;2.43;;;;;;;;;;5070194;28;20885;-67
2023/06/24 01:55:01;;;;;;;3.83;3.20;;;;;;;;;;5073347;28;20543;-67
2023/06/24 01:57:30;;;;;;;4.40;3.07;;;;;;;;;;5071781;28;20801;-67
2023/06/24 01:59:58;;;;;;;3.90;2.70;;;;;;;;;;5072800;28;20840;-67
2023/06/24 02:02:27;;;;;;;3.67;2.30;;;;;;;;;;5073218;28;20918;-67
2023/06/24 02:04:55;;;;;;;3.80;2.70;;;;;;;;;;5073315;28;20494;-67
2023/06/24 02:07:25;;;;;;;3.70;2.73;;;;;;;;;;5072894;28;20849;-67
2023/06/24 02:09:53;;;;;;;4.30;3.10;;;;;;;;;;5072615;28;20476;-67
2023/06/24 02:12:20;;;;;;;3.77;2.70;;;;;;;;;;5072894;28;20469;-67
2023/06/24 02:14:49;;;;;;;3.80;2.67;;;;;;;;;;5073274;28;20445;-67
2023/06/24 02:17:16;;;;;;;3.40;2.50;;;;;;;;;;5072598;28;20555;-67
2023/06/24 02:19:44;;;;;;;3.90;2.90;;;;;;;;;;5072733;28;20553;-67
2023/06/24 02:22:12;;;;;;;4.90;2.63;;;;;;;;;;5072892;28;20561;-67
2023/06/24 02:24:42;;;;;;;4.40;2.83;;;;;;;;;;5072801;28;20468;-67
2023/06/24 02:27:10;;;;;;;3.40;2.50;;;;;;;;;;5072396;28;20986;-67
2023/06/24 02:29:38;;;;;;;3.57;2.70;;;;;;;;;;5072458;28;21019;-67
2023/06/24 02:32:05;;;;;;;3.60;2.47;;;;;;;;;;5071664;28;20523;-67
2023/06/24 02:34:32;;;;;;;3.00;2.43;;;;;;;;;;5072572;28;20480;-67
2023/06/24 02:37:00;;;;;;;3.60;2.60;;;;;;;;;;5071815;28;20993;-67
2023/06/24 02:39:27;;;;;;;3.93;2.70;;;;;;;;;;5072009;28;21016;-67
2023/06/24 02:41:56;;;;;;;4.43;2.40;;;;;;;;;;5072571;28;20556;-67
2023/06/24 02:44:23;;;;;;;3.90;2.67;;;;;;;;;;5072647;28;20532;-67
2023/06/24 02:46:51;;;;;;;3.30;2.70;;;;;;;;;;5071831;28;20492;-67
2023/06/24 02:49:18;;;;;;;4.03;2.40;;;;;;;;;;5071763;28;20883;-67
2023/06/24 02:51:46;;;;;;;3.60;2.50;;;;;;;;;;5070553;28;20460;-67
2023/06/24 02:54:13;;;;;;;3.90;3.00;;;;;;;;;;5070825;28;20923;-67
2023/06/24 02:56:43;;;;;;;4.87;3.20;;;;;;;;;;5070517;28;20568;-67
2023/06/24 02:59:12;;;;;;;3.40;2.53;;;;;;;;;;5072155;28;20830;-67
2023/06/24 03:01:39;;;;;;;4.00;2.60;;;;;;;;;;5071973;28;20921;-67
2023/06/24 03:04:07;;;;;;;3.33;2.70;;;;;;;;;;5072295;28;20460;-67
2023/06/24 03:06:36;;;;;;;5.17;3.17;;;;;;;;;;5071429;28;20925;-67
2023/06/24 03:09:04;;;;;;;3.87;3.07;;;;;;;;;;5071732;28;20462;-67
2023/06/24 03:11:31;;;;;;;4.20;3.10;;;;;;;;;;5070907;28;20459;-67
2023/06/24 03:13:58;;;;;;;4.70;2.73;;;;;;;;;;5072005;28;20539;-67
2023/06/24 03:16:27;;;;;;;3.80;2.90;;;;;;;;;;5071248;28;20461;-67
2023/06/24 03:18:54;;;;;;;4.97;2.97;;;;;;;;;;5071768;28;20531;-67
2023/06/24 03:21:28;;;;;;;3.63;2.83;;;;;;;;;;5071638;28;20780;-67
2023/06/24 03:23:56;;;;;;;3.93;2.50;;;;;;;;;;5071767;28;20571;-67
2023/06/24 03:26:23;;;;;;;5.93;3.10;;;;;;;;;;5071054;28;20475;-67
2023/06/24 03:28:51;;;;;;;3.17;2.43;;;;;;;;;;5071054;28;20864;-67
2023/06/24 03:31:23;;;;;;;4.00;2.57;;;;;;;;;;5069809;28;20520;-67
2023/06/24 03:33:51;;;;;;;3.57;2.57;;;;;;;;;;5071940;28;20433;-67
2023/06/24 03:36:18;;;;;;;5.43;2.70;;;;;;;;;;5071239;28;20914;-67
2023/06/24 03:38:46;;;;;;;3.40;2.40;;;;;;;;;;5070983;28;20445;-67
2023/06/24 03:41:13;;;;;;;3.40;2.47;;;;;;;;;;5071090;28;20964;-67
2023/06/24 03:43:41;;;;;;;4.73;2.57;;;;;;;;;;5071700;28;20572;-68
2023/06/24 03:46:09;;;;;;;4.33;2.80;;;;;;;;;;5070758;28;20471;-67
2023/06/24 03:48:36;;;;;;;4.37;2.60;;;;;;;;;;5070882;28;20532;-68
2023/06/24 03:51:05;;;;;;;2.77;2.00;;;;;;;;;;5069485;28;21551;-68
2023/06/24 03:53:32;;;;;;;3.40;2.60;;;;;;;;;;5069318;28;20436;-68
2023/06/24 03:56:01;;;;;;;3.20;2.13;;;;;;;;;;5070761;28;20460;-67
2023/06/24 03:58:28;;;;;;;2.80;2.17;;;;;;;;;;5070861;28;20452;-68
2023/06/24 04:00:56;;;;;;;3.27;2.37;;;;;;;;;;5071117;28;20439;-68
2023/06/24 04:03:25;;;;;;;4.43;2.70;;;;;;;;;;5070892;28;20508;-68
2023/06/24 04:05:53;;;;;;;2.80;2.33;;;;;;;;;;5070505;28;20795;-68
2023/06/24 04:08:22;;;;;;;4.20;3.53;;;;;;;;;;5070674;28;20476;-67
2023/06/24 04:10:49;;;;;;;4.80;2.97;;;;;;;;;;5102150;22;20867;-50
2023/06/24 04:13:16;;;;;;;4.40;3.10;;;;;;;;;;5090982;28;20526;-50
2023/06/24 04:15:43;;;;;;;3.77;3.27;;;;;;;;;;5090714;28;20738;-47
2023/06/24 04:18:10;;;;;;;3.97;3.10;;;;;;;;;;5090541;28;21023;-50
2023/06/24 04:20:38;;;;;;;4.20;2.90;;;;;;;;;;5109654;28;20498;-50
2023/06/24 04:23:09;;;;;;;5.40;3.17;;;;;;;;;;5131845;22;20519;-72
2023/06/24 04:25:37;;;;;;;3.60;2.80;;;;;;;;;;5098269;28;20924;-71
2023/06/24 04:28:05;;;;;;;3.67;2.77;;;;;;;;;;5097365;28;20489;-71
2023/06/24 04:30:32;;;;;;;3.53;2.50;;;;;;;;;;5098739;28;20478;-71
2023/06/24 04:32:59;;;;;;;4.13;2.23;;;;;;;;;;5096643;28;20518;-72
2023/06/24 04:35:27;;;;;;;3.83;2.53;;;;;;;;;;5098391;28;20475;-71
2023/06/24 04:37:54;;;;;;;3.40;2.90;;;;;;;;;;5114264;22;20838;-57
2023/06/24 04:40:21;;;;;;;3.77;2.60;;;;;;;;;;5097404;28;20539;-51
2023/06/24 04:42:50;;;;;;;3.60;2.30;;;;;;;;;;5097316;28;20564;-51
2023/06/24 04:45:17;;;;;;;3.67;2.83;;;;;;;;;;5097936;28;20766;-53
2023/06/24 04:47:44;;;;;;;4.87;2.90;;;;;;;;;;5097015;28;20543;-56
2023/06/24 04:50:12;;;;;;;3.37;2.43;;;;;;;;;;5120622;22;20486;-67
2023/06/24 04:52:41;;;;;;;3.37;2.10;;;;;;;;;;5094198;28;20885;-67
2023/06/24 04:55:08;;;;;;;3.57;2.77;;;;;;;;;;5097717;28;20478;-67
2023/06/24 04:57:36;;;;;;;4.10;2.87;;;;;;;;;;5097366;28;20869;-67
2023/06/24 05:00:05;;;;;;;3.77;2.30;;;;;;;;;;5097270;28;20538;-67
2023/06/24 05:02:33;;;;;;;4.80;2.50;;;;;;;;;;5097644;28;20483;-67
2023/06/24 05:05:00;;;;;;;4.27;2.60;;;;;;;;;;5097345;28;20444;-67
2023/06/24 05:07:27;;;;;;;3.73;2.30;;;;;;;;;;5096914;28;20995;-67
2023/06/24 05:09:54;;;;;;;3.80;2.60;;;;;;;;;;5110022;28;20461;-67
2023/06/24 05:12:22;;;;;;;4.30;2.60;;;;;;;;;;5100824;28;20496;-67
2023/06/24 05:14:52;;;;;;;3.10;2.40;;;;;;;;;;5097512;28;20489;-67
2023/06/24 05:17:21;;;;;;;3.50;2.63;;;;;;;;;;5097578;28;20866;-67
2023/06/24 05:19:48;;;;;;;3.40;2.50;;;;;;;;;;5096888;28;20886;-67
2023/06/24 05:22:15;;;;;;;4.60;3.03;;;;;;;;;;5097253;28;20442;-67
2023/06/24 05:24:43;;;;;;;3.60;2.60;;;;;;;;;;5097338;28;20526;-67
2023/06/24 05:27:10;;;;;;;4.17;3.00;;;;;;;;;;5096747;28;20880;-67
2023/06/24 05:29:38;;;;;;;3.80;2.50;;;;;;;;;;5097044;28;20443;-67
2023/06/24 05:32:05;;;;;;;4.10;3.00;;;;;;;;;;5095255;28;20941;-67
2023/06/24 05:34:34;;;;;;;3.93;2.47;;;;;;;;;;5095197;28;20517;-67
2023/06/24 05:37:02;;;;;;;2.90;2.00;;;;;;;;;;5093268;28;20474;-67
2023/06/24 05:39:29;;;;;;;3.50;2.43;;;;;;;;;;5093773;28;20474;-67
2023/06/24 05:41:56;;;;;;;3.30;2.77;;;;;;;;;;5094052;28;20887;-67
2023/06/24 05:44:23;;;;;;;3.73;2.40;;;;;;;;;;5094202;28;20515;-67
2023/06/24 05:46:51;;;;;;;3.83;2.40;;;;;;;;;;5093508;28;20460;-67
2023/06/24 05:49:18;;;;;;;3.43;2.20;;;;;;;;;;5093439;28;20475;-67
2023/06/24 05:51:46;;;;;;;4.40;2.43;;;;;;;;;;5092301;28;20551;-67
2023/06/24 05:54:14;;;;;;;2.90;2.00;;;;;;;;;;5092138;28;20517;-67
2023/06/24 05:56:41;;;;;;;2.97;2.00;;;;;;;;;;5092983;28;20907;-67
2023/06/24 05:59:08;;;;;;;3.80;2.20;;;;;;;;;;5093357;28;20447;-67
2023/06/24 06:01:35;;;;;;;3.90;2.50;;;;;;;;;;5093675;28;20436;-67
2023/06/24 06:04:04;;;;;;;3.33;2.27;;;;;;;;;;5093418;28;20568;-67
2023/06/24 06:06:31;;;;;;;3.40;2.20;;;;;;;;;;5092994;28;20435;-67
2023/06/24 06:09:01;;;;;;;3.50;2.60;;;;;;;;;;5092921;28;20435;-67
2023/06/24 06:11:28;;;;;;;3.97;2.63;;;;;;;;;;5093332;28;20442;-67
2023/06/24 06:13:55;;;;;;;3.13;2.17;;;;;;;;;;5093624;28;20436;-67
2023/06/24 06:16:23;;;;;;;4.20;2.73;;;;;;;;;;5092392;28;20553;-67
2023/06/24 06:18:50;;;;;;;3.70;2.17;;;;;;;;;;5092623;28;20490;-67
2023/06/24 06:21:17;;;;;;;3.00;2.00;;;;;;;;;;5092872;28;20460;-67
2023/06/24 06:23:45;;;;;;;8.33;2.27;;;;;;;;;;5092461;28;20516;-67
2023/06/24 06:26:14;;;;;;;3.63;2.23;;;;;;;;;;5092346;28;20432;-67
2023/06/24 06:28:41;;;;;;;3.50;2.40;;;;;;;;;;5092062;28;20877;-67
2023/06/24 06:31:08;;;;;;;4.87;2.13;;;;;;;;;;5087995;28;20436;-67
2023/06/24 06:33:35;;;;;;;3.10;2.07;;;;;;;;;;5092513;28;20475;-67
2023/06/24 06:36:03;;;;;;;4.20;2.67;;;;;;;;;;5092194;28;20491;-67
2023/06/24 06:38:30;;;;;;;3.67;2.87;;;;;;;;;;5091383;28;20910;-67
2023/06/24 06:40:57;;;;;;;3.27;2.33;;;;;;;;;;5091354;28;20495;-67
2023/06/24 06:43:26;;;;;;;5.10;2.90;;;;;;;;;;5090841;28;20562;-67
2023/06/24 06:45:53;;;;;;;4.03;2.93;;;;;;;;;;5089956;28;20469;-67
2023/06/24 06:48:20;;;;;;;4.63;2.93;;;;;;;;;;5090550;28;20544;-67
2023/06/24 06:50:47;;;;;;;3.80;2.10;;;;;;;;;;5086705;28;20533;-68
2023/06/24 06:53:15;;;;;;;3.83;2.40;;;;;;;;;;5089587;28;20436;-67
2023/06/24 06:55:42;;;;;;;5.23;2.50;;;;;;;;;;5091913;28;20543;-67
2023/06/24 06:58:10;;;;;;;3.23;2.30;;;;;;;;;;5091765;28;20460;-67
2023/06/24 07:00:38;;;;;;;3.70;2.30;;;;;;;;;;5091929;28;20436;-67
2023/06/24 07:03:05;;;;;;;4.27;2.13;;;;;;;;;;5091797;28;20582;-67
2023/06/24 07:05:33;;;;;;;4.93;2.37;;;;;;;;;;5091854;28;21011;-67
2023/06/24 07:08:00;;;;;;;5.20;2.70;;;;;;;;;;5090812;28;20516;-67
2023/06/24 07:10:27;;;;;;;3.63;2.43;;;;;;;;;;5092413;28;20479;-69
2023/06/24 07:12:57;;;;;;;4.13;2.40;;;;;;;;;;5091706;28;20518;-72
2023/06/24 07:15:25;;;;;;;4.30;2.67;;;;;;;;;;5088604;28;20475;-73
2023/06/24 07:17:54;;;;;;;4.00;2.37;;;;;;;;;;5091580;28;20517;-69
2023/06/24 07:20:21;;;;;;;4.30;2.57;;;;;;;;;;5091775;28;20467;-68
2023/06/24 07:22:49;;;;;;;3.63;2.30;;;;;;;;;;5090120;28;21074;-68
2023/06/24 07:25:16;;;;;;;3.80;2.57;;;;;;;;;;5091941;28;20527;-68
2023/06/24 07:27:43;;;;;;;4.27;2.00;;;;;;;;;;5091713;28;20519;-68
2023/06/24 07:30:11;;;;;;;4.30;2.60;;;;;;;;;;5091496;28;20984;-68
2023/06/24 07:32:38;;;;;;;4.00;2.17;;;;;;;;;;5091903;28;20440;-68
2023/06/24 07:35:07;;;;;;;3.30;2.37;;;;;;;;;;5091974;28;20485;-68
2023/06/24 07:37:35;;;;;;;3.97;2.47;;;;;;;;;;5091291;28;20502;-68
2023/06/24 07:40:05;;;;;;;3.43;2.10;;;;;;;;;;5091024;28;20986;-68
2023/06/24 07:42:32;;;;;;;3.27;2.20;;;;;;;;;;5083392;28;20518;-68
2023/06/24 07:44:59;;;;;;;3.80;2.20;;;;;;;;;;5086355;28;20483;-68
2023/06/24 07:47:26;;;;;;;3.27;2.40;;;;;;;;;;5087312;28;20495;-67
2023/06/24 07:49:54;;;;;;;4.23;2.23;;;;;;;;;;5087368;28;20546;-67
2023/06/24 07:52:22;;;;;;;2.83;2.03;;;;;;;;;;5085413;28;20528;-67
2023/06/24 07:54:49;;;;;;;4.80;2.40;;;;;;;;;;5085839;28;20547;-68
2023/06/24 07:57:17;;;;;;;3.93;2.20;;;;;;;;;;5066705;28;20547;-68
2023/06/24 07:59:44;;;;;;;4.53;2.70;;;;;;;;;;5067317;28;20539;-68
2023/06/24 08:02:11;;;;;;;3.60;2.10;;;;;;;;;;5074872;28;20533;-68
2023/06/24 08:04:38;;;;;;;2.97;2.17;;;;;;;;;;5067150;28;20560;-68
2023/06/24 08:07:06;;;;;;;3.43;1.90;;;;;;;;;;5067177;28;20919;-68
2023/06/24 08:09:35;;;;;;;3.60;2.60;;;;;;;;;;5067590;28;20520;-68
2023/06/24 08:12:02;;;;;;;4.33;2.57;;;;;;;;;;5074230;28;20471;-68
2023/06/24 08:14:29;;;;;;;4.07;2.20;;;;;;;;;;5087786;28;20493;-68
2023/06/24 08:16:56;;;;;;;3.60;2.93;;;;;;;;;;5086861;28;20494;-68
2023/06/24 08:19:24;;;;;;;4.00;2.40;;;;;;;;;;5087306;28;21037;-68
2023/06/24 08:21:51;;;;;;;4.07;2.50;;;;;;;;;;5090035;28;20527;-68
2023/06/24 08:24:18;;;;;;;3.63;2.40;;;;;;;;;;5089407;28;20503;-68
2023/06/24 08:26:47;;;;;;;3.33;2.40;;;;;;;;;;5089813;28;20545;-68
2023/06/24 08:29:14;;;;;;;3.50;2.30;;;;;;;;;;5088939;28;20468;-68
2023/06/24 08:31:41;;;;;;;4.20;2.90;;;;;;;;;;5089666;28;20478;-68
2023/06/24 08:34:08;;;;;;;3.20;2.13;;;;;;;;;;5090947;28;20527;-67
2023/06/24 08:36:37;;;;;;;4.27;2.57;;;;;;;;;;5090816;28;20535;-67
2023/06/24 08:39:04;;;;;;;4.20;2.63;;;;;;;;;;5090937;28;20440;-68
2023/06/24 08:41:31;;;;;;;3.97;2.40;;;;;;;;;;5091327;28;20526;-68
2023/06/24 08:44:00;;;;;;;3.80;2.10;;;;;;;;;;5095998;28;20523;-67
2023/06/24 08:46:27;;;;;;;3.60;2.03;;;;;;;;;;5103823;28;20440;-68
2023/06/24 08:48:57;;;;;;;4.90;2.60;;;;;;;;;;5090362;28;20530;-68
2023/06/24 08:51:25;;;;;;;4.40;2.17;;;;;;;;;;5089018;28;20479;-68
2023/06/24 08:53:53;;;;;;;4.53;3.03;;;;;;;;;;5089248;28;20471;-68
2023/06/24 08:56:20;;;;;;;4.37;2.70;;;;;;;;;;5090325;28;20483;-68
2023/06/24 08:58:47;;;;;;;6.20;2.60;;;;;;;;;;5090445;28;20446;-68
2023/06/24 09:01:16;;;;;;;4.37;2.23;;;;;;;;;;5090947;28;20527;-68
2023/06/24 09:03:43;;;;;;;5.80;2.60;;;;;;;;;;5090945;28;20947;-68
2023/06/24 09:06:11;;;;;;;3.50;2.13;;;;;;;;;;5090076;28;20472;-68
2023/06/24 09:08:39;;;;;;;3.33;2.20;;;;;;;;;;5090331;28;20533;-68
2023/06/24 09:11:06;;;;;;;4.83;2.60;;;;;;;;;;5093620;28;20447;-68
2023/06/24 09:13:37;;;;;;;6.50;2.13;;;;;;;;;;5094371;28;20439;-67
2023/06/24 09:16:13;;;;;;;3.67;2.10;;;;;;;;;;5094049;28;20897;-68
2023/06/24 09:18:42;;;;;;;4.07;2.50;;;;;;;;;;5094176;28;20439;-74
2023/06/24 09:21:12;;;;;;;4.80;2.13;;;;;;;;;;5094393;28;20455;-70
2023/06/24 09:23:39;;;;;;;4.47;2.70;;;;;;;;;;5094310;28;20449;-70
2023/06/24 09:26:12;;;;;;;3.53;2.30;;;;;;;;;;5093836;28;20476;-67
2023/06/24 09:28:39;;;;;;;4.70;3.23;;;;;;;;;;5094127;28;20447;-67
2023/06/24 09:31:07;;;;;;;6.23;3.77;;;;;;;;;;5094173;28;20861;-67
2023/06/24 09:33:35;;;;;;;6.53;3.40;;;;;;;;;;5094319;28;20528;-67
2023/06/24 09:36:05;;;;;;;4.83;2.70;;;;;;;;;;5093656;28;20786;-67
2023/06/24 09:38:36;;;;;;;4.93;2.77;;;;;;;;;;5093468;28;20554;-67
2023/06/24 09:41:04;;;;;;;4.80;3.00;;;;;;;;;;5094189;28;20436;-67
2023/06/24 09:43:32;;;;;;;4.20;2.47;;;;;;;;;;5094088;28;20456;-67
2023/06/24 09:45:59;;;;;;;6.30;3.30;;;;;;;;;;5093422;28;20436;-67
2023/06/24 09:48:27;;;;;;;4.60;3.13;;;;;;;;;;5093143;28;20486;-67
2023/06/24 09:50:54;;;;;;;4.33;2.53;;;;;;;;;;5092064;28;21186;-67
2023/06/24 09:53:23;;;;;;;6.70;3.23;;;;;;;;;;5091480;28;20984;-67
2023/06/24 09:55:51;;;;;;;6.73;3.20;;;;;;;;;;5093514;28;20523;-67
2023/06/24 09:58:20;;;;;;;4.60;2.50;;;;;;;;;;5093363;28;20944;-67
2023/06/24 10:00:47;;;;;;;4.20;2.67;;;;;;;;;;5093562;28;20470;-67
2023/06/24 10:03:15;;;;;;;5.40;3.13;;;;;;;;;;5093211;28;20479;-67
2023/06/24 10:05:43;;;;;;;4.47;2.90;;;;;;;;;;5093524;28;20566;-67
2023/06/24 10:08:10;;;;;;;4.33;2.43;;;;;;;;;;5093349;28;20464;-67
2023/06/24 10:10:39;;;;;;;5.30;2.93;;;;;;;;;;5093690;28;20538;-68
2023/06/24 10:13:07;;;;;;;5.70;2.63;;;;;;;;;;5093138;28;20530;-67
2023/06/24 10:15:35;;;;;;;3.57;2.50;;;;;;;;;;5093266;28;20451;-68
2023/06/24 10:18:03;;;;;;;4.87;2.83;;;;;;;;;;5092411;28;20501;-68
2023/06/24 10:20:31;;;;;;;4.37;2.27;;;;;;;;;;5092942;28;20440;-67
2023/06/24 10:22:59;;;;;;;5.57;3.57;;;;;;;;;;5093075;28;20471;-67
2023/06/24 10:25:37;;;;;;;4.07;2.90;;;;;;;;;;5092610;28;21145;-67
2023/06/24 10:28:06;;;;;;;3.70;2.73;;;;;;;;;;5092052;28;20992;-67
2023/06/24 10:30:33;;;;;;;4.30;2.80;;;;;;;;;;5092997;28;20512;-67
2023/06/24 10:33:01;;;;;;;3.70;2.43;;;;;;;;;;5092869;28;20822;-67
2023/06/24 10:35:30;;;;;;;4.70;2.43;;;;;;;;;;5092727;28;20522;-67
2023/06/24 10:37:58;;;;;;;4.00;2.70;;;;;;;;;;5091991;28;21207;-67
2023/06/24 10:40:38;;;;;;;4.60;3.50;;;;;;;;;;5092533;28;20531;-67
2023/06/24 10:43:24;;;;;;;3.50;2.63;;;;;;;;;;5092536;28;20443;-67
2023/06/24 10:45:52;;;;;;;7.23;3.20;;;;;;;;;;5092500;28;20475;-68
2023/06/24 10:48:20;;;;;;;4.10;2.50;;;;;;;;;;5091936;28;20468;-68
2023/06/24 10:50:47;;;;;;;4.20;2.67;;;;;;;;;;5104663;22;20498;-53
2023/06/24 10:53:18;;;;;;;3.90;2.77;;;;;;;;;;5090263;28;20981;-50
2023/06/24 10:55:45;;;;;;;4.00;2.80;;;;;;;;;;5092464;28;20447;-48
2023/06/24 10:58:15;;;;;;;4.50;2.80;;;;;;;;;;5089732;28;20938;-50
2023/06/24 11:00:44;;;;;;;3.63;2.90;;;;;;;;;;5079475;28;20507;-51
2023/06/24 11:03:11;;;;;;;3.80;2.70;;;;;;;;;;5085270;28;20999;-50
2023/06/24 11:05:41;;;;;;;3.90;2.77;;;;;;;;;;5101442;22;20579;-71
2023/06/24 11:08:08;;;;;;;4.30;2.40;;;;;;;;;;5077923;28;20474;-71
2023/06/24 11:10:35;;;;;;;4.17;2.40;;;;;;;;;;5096492;28;20545;-71
2023/06/24 11:13:06;;;;;;;5.40;2.50;;;;;;;;;;5108186;28;20533;-71
2023/06/24 11:15:35;;;;;;;2.97;2.30;;;;;;;;;;5106949;28;20434;-71
2023/06/24 11:18:04;;;;;;;4.13;2.50;;;;;;;;;;5105891;28;20443;-71
2023/06/24 11:20:32;;;;;;;3.50;2.17;;;;;;;;;;5110274;28;20937;-72
2023/06/24 11:22:59;;;;;;;5.57;2.57;;;;;;;;;;5107020;28;20458;-72
2023/06/24 11:25:27;;;;;;;3.10;2.40;;;;;;;;;;5099682;28;20466;-72
2023/06/24 11:27:54;;;;;;;3.20;2.07;;;;;;;;;;5109014;28;20901;-72
2023/06/24 11:30:22;;;;;;;3.87;2.40;;;;;;;;;;5096103;28;20495;-70
2023/06/24 11:32:51;;;;;;;3.20;2.20;;;;;;;;;;5089089;28;20447;-70
2023/06/24 11:35:18;;;;;;;4.80;2.03;;;;;;;;;;5088609;28;20689;-70
2023/06/24 11:37:49;;;;;;;4.03;2.07;;;;;;;;;;5089658;28;21179;-72
2023/06/24 11:40:19;;;;;;;3.10;2.00;;;;;;;;;;5088807;28;20487;-71
2023/06/24 11:42:47;;;;;;;2.50;1.60;;;;;;;;;;5089408;28;21000;-70
2023/06/24 11:45:16;;;;;;;3.40;2.00;;;;;;;;;;5088436;28;20475;-70
2023/06/24 11:47:43;;;;;;;5.03;2.10;;;;;;;;;;5089669;28;20452;-70
2023/06/24 11:50:12;;;;;;;3.60;2.07;;;;;;;;;;5088733;28;20528;-71
2023/06/24 11:52:40;;;;;;;3.43;2.03;;;;;;;;;;5088994;28;20530;-70
2023/06/24 11:55:13;;;;;;;2.70;1.53;;;;;;;;;;5089544;28;20944;-70
2023/06/24 11:57:54;;;;;;;3.37;2.03;;;;;;;;;;5090033;28;21106;-70
2023/06/24 12:00:23;;;;;;;3.87;2.00;;;;;;;;;;5087989;28;20510;-70
2023/06/24 12:03:00;;;;;;;4.53;2.30;;;;;;;;;;5088824;28;20474;-70
2023/06/24 12:05:30;;;;;;;6.00;2.60;;;;;;;;;;5087398;28;21357;-70
2023/06/24 12:07:58;;;;;;;3.10;1.70;;;;;;;;;;5088063;28;21016;-71
2023/06/24 12:10:25;;;;;;;3.50;2.17;;;;;;;;;;5088484;28;21301;-70
2023/06/24 12:12:53;;;;;;;6.73;2.27;;;;;;;;;;5088553;28;20535;-70
2023/06/24 12:15:20;;;;;;;3.73;2.37;;;;;;;;;;5092214;28;20443;-70
2023/06/24 12:17:48;;;;;;;4.30;2.40;;;;;;;;;;5094268;28;20439;-72
2023/06/24 12:20:17;;;;;;;3.30;1.97;;;;;;;;;;5088435;28;20557;-72
2023/06/24 12:22:45;;;;;;;3.40;2.17;;;;;;;;;;5087026;28;20456;-70
2023/06/24 12:25:13;;;;;;;2.50;1.60;;;;;;;;;;5087761;28;20459;-72
2023/06/24 12:27:41;;;;;;;4.43;2.70;;;;;;;;;;5088075;28;20451;-69
2023/06/24 12:30:09;;;;;;;3.77;2.17;;;;;;;;;;5090289;28;21006;-70
2023/06/24 12:32:36;;;;;;;3.93;1.93;;;;;;;;;;5089932;28;20444;-70
2023/06/24 12:35:04;;;;;;;7.67;2.37;;;;;;;;;;5090868;28;20498;-70
2023/06/24 12:37:32;;;;;;;6.23;2.60;;;;;;;;;;5090899;28;20500;-70
2023/06/24 12:40:01;;;;;;;3.53;2.27;;;;;;;;;;5090687;28;20452;-71
2023/06/24 12:42:28;;;;;;;4.83;2.27;;;;;;;;;;5090686;28;20526;-70
2023/06/24 12:44:56;;;;;;;3.50;2.13;;;;;;;;;;5094420;28;20570;-70
2023/06/24 12:47:23;;;;;;;4.80;2.50;;;;;;;;;;5094458;28;20444;-70
2023/06/24 12:49:52;;;;;;;4.40;2.03;;;;;;;;;;5094240;28;20505;-70
2023/06/24 12:52:20;;;;;;;4.17;2.53;;;;;;;;;;5093312;28;20990;-70
2023/06/24 12:54:47;;;;;;;3.83;2.40;;;;;;;;;;5094913;28;20531;-70
2023/06/24 12:57:16;;;;;;;4.00;2.30;;;;;;;;;;5094719;28;20447;-70
2023/06/24 12:59:43;;;;;;;4.33;2.60;;;;;;;;;;5094778;28;20443;-70
2023/06/24 13:02:11;;;;;;;4.90;2.00;;;;;;;;;;5093751;28;20459;-70
2023/06/24 13:04:38;;;;;;;3.87;2.50;;;;;;;;;;5094694;28;20436;-70
2023/06/24 13:07:07;;;;;;;5.30;2.27;;;;;;;;;;5094813;28;20534;-70
2023/06/24 13:09:34;;;;;;;4.90;2.03;;;;;;;;;;5094563;28;20435;-70
2023/06/24 13:12:01;;;;;;;3.20;2.10;;;;;;;;;;5094840;28;20493;-70
2023/06/24 13:14:30;;;;;;;4.27;2.67;;;;;;;;;;5093749;28;20497;-69
2023/06/24 13:16:57;;;;;;;3.70;2.20;;;;;;;;;;5094793;28;20535;-70
2023/06/24 13:19:24;;;;;;;4.00;2.30;;;;;;;;;;5094587;28;20471;-70
2023/06/24 13:21:52;;;;;;;4.17;2.37;;;;;;;;;;5094721;28;20467;-69
2023/06/24 13:24:19;;;;;;;4.60;2.37;;;;;;;;;;5094209;28;20451;-70
2023/06/24 13:26:46;;;;;;;3.83;2.00;;;;;;;;;;5094200;28;20511;-70
2023/06/24 13:29:14;;;;;;;4.50;2.20;;;;;;;;;;5094376;28;20471;-70
2023/06/24 13:31:42;;;;;;;3.63;1.70;;;;;;;;;;5094278;28;20469;-70
2023/06/24 13:34:09;;;;;;;6.53;2.63;;;;;;;;;;5094322;28;21009;-70
2023/06/24 13:36:37;;;;;;;5.53;2.50;;;;;;;;;;5093813;28;20527;-69
2023/06/24 13:39:05;;;;;;;2.93;2.00;;;;;;;;;;5093910;28;20467;-70
2023/06/24 13:41:32;;;;;;;3.80;2.17;;;;;;;;;;5094277;28;20494;-70
2023/06/24 13:44:00;;;;;;;4.10;2.10;;;;;;;;;;5093939;28;20519;-70
2023/06/24 13:46:28;;;;;;;3.97;1.90;;;;;;;;;;5093715;28;20555;-70
2023/06/24 13:48:57;;;;;;;3.07;1.97;;;;;;;;;;5093617;28;20892;-69
2023/06/24 13:51:24;;;;;;;3.27;2.00;;;;;;;;;;5094128;28;20470;-69
2023/06/24 13:53:52;;;;;;;3.40;2.20;;;;;;;;;;5094273;28;20522;-70
2023/06/24 13:56:19;;;;;;;4.07;2.37;;;;;;;;;;5092827;28;20466;-70
2023/06/24 13:58:47;;;;;;;3.50;2.00;;;;;;;;;;5093500;28;20515;-69
2023/06/24 14:01:15;;;;;;;4.50;2.77;;;;;;;;;;5093990;28;20564;-70
2023/06/24 14:03:43;;;;;;;3.93;2.10;;;;;;;;;;5094033;28;20447;-70
2023/06/24 14:06:11;;;;;;;3.20;2.03;;;;;;;;;;5091687;28;20566;-70
2023/06/24 14:08:39;;;;;;;3.90;2.30;;;;;;;;;;5092857;28;20521;-70
2023/06/24 14:11:06;;;;;;;4.53;2.07;;;;;;;;;;5092956;28;20940;-70
2023/06/24 14:13:33;;;;;;;3.20;1.93;;;;;;;;;;5093389;28;20440;-68
2023/06/24 14:16:00;;;;;;;3.17;1.93;;;;;;;;;;5091412;28;20511;-70
2023/06/24 14:18:31;;;;;;;5.50;2.40;;;;;;;;;;5093178;28;20493;-69
2023/06/24 14:20:58;;;;;;;4.27;2.23;;;;;;;;;;5092708;28;20464;-70
2023/06/24 14:23:27;;;;;;;2.97;1.70;;;;;;;;;;5092933;28;20527;-70
2023/06/24 14:25:54;;;;;;;3.67;2.10;;;;;;;;;;5092496;28;21077;-70
2023/06/24 14:28:22;;;;;;;4.13;2.17;;;;;;;;;;5093122;28;20479;-70
2023/06/24 14:30:49;;;;;;;3.30;2.10;;;;;;;;;;5093237;28;20551;-70
2023/06/24 14:33:16;;;;;;;3.57;2.17;;;;;;;;;;5093245;28;20487;-70
2023/06/24 14:35:44;;;;;;;3.70;2.27;;;;;;;;;;5093283;28;20470;-69
2023/06/24 14:38:12;;;;;;;3.17;2.30;;;;;;;;;;5092616;28;20444;-70
2023/06/24 14:40:40;;;;;;;3.33;2.23;;;;;;;;;;5093087;28;20549;-70
2023/06/24 14:43:08;;;;;;;3.33;2.10;;;;;;;;;;5092820;28;20489;-69
2023/06/24 14:45:35;;;;;;;3.53;2.30;;;;;;;;;;5094268;28;20471;-69
2023/06/24 14:48:02;;;;;;;3.00;1.80;;;;;;;;;;5092243;28;20482;-70